<?xml version="1.0" encoding="UTF-8" standalone="no" ?>
<gpx xmlns="http://www.topografix.com/GPX/1/1" xmlns:xsi="http://www.w3.org/2001/XMLSchema-instance" xsi:schemaLocation="http://www.topografix.com/GPX/1/1 http://www.topografix.com/GPX/1/1/gpx.xsd" version="1.1" creator="VisuGPX - https://www.visugpx.com">
  <metadata>
    <name>Enduro_chartreuse_2014_RUN1</name>
    <desc><![CDATA[Run 1 de l\'enduro chartreuse 2014. 
Départ au col du granier, arrivée sur les hauteurs de Barberaz]]></desc>
  </metadata>
  <trk>
    <name><![CDATA[04-OCT-14 11:19:32]]></name>
    <trkseg>
      <trkpt lat="45.48023" lon="5.91429">
        <ele>1129.69</ele>
        <time>2014-10-04T07:38:18Z</time>
      </trkpt>
      <trkpt lat="45.48024" lon="5.91429">
        <ele>1129.69</ele>
        <time>2014-10-04T07:38:43Z</time>
      </trkpt>
      <trkpt lat="45.48022" lon="5.91428">
        <ele>1129.21</ele>
        <time>2014-10-04T07:39:02Z</time>
      </trkpt>
      <trkpt lat="45.48022" lon="5.91427">
        <ele>1129.69</ele>
        <time>2014-10-04T07:39:30Z</time>
      </trkpt>
      <trkpt lat="45.48022" lon="5.91427">
        <ele>1129.21</ele>
        <time>2014-10-04T07:39:59Z</time>
      </trkpt>
      <trkpt lat="45.48023" lon="5.91426">
        <ele>1129.21</ele>
        <time>2014-10-04T07:40:26Z</time>
      </trkpt>
      <trkpt lat="45.48023" lon="5.91427">
        <ele>1128.73</ele>
        <time>2014-10-04T07:40:43Z</time>
      </trkpt>
      <trkpt lat="45.48023" lon="5.91427">
        <ele>1128.73</ele>
        <time>2014-10-04T07:40:57Z</time>
      </trkpt>
      <trkpt lat="45.48023" lon="5.91427">
        <ele>1128.24</ele>
        <time>2014-10-04T07:41:11Z</time>
      </trkpt>
      <trkpt lat="45.48023" lon="5.91427">
        <ele>1127.76</ele>
        <time>2014-10-04T07:41:29Z</time>
      </trkpt>
      <trkpt lat="45.48023" lon="5.91426">
        <ele>1127.28</ele>
        <time>2014-10-04T07:41:52Z</time>
      </trkpt>
      <trkpt lat="45.48023" lon="5.91425">
        <ele>1126.8</ele>
        <time>2014-10-04T07:42:21Z</time>
      </trkpt>
      <trkpt lat="45.48023" lon="5.91425">
        <ele>1126.8</ele>
        <time>2014-10-04T07:42:39Z</time>
      </trkpt>
      <trkpt lat="45.48023" lon="5.91425">
        <ele>1126.8</ele>
        <time>2014-10-04T07:43:05Z</time>
      </trkpt>
      <trkpt lat="45.48023" lon="5.91424">
        <ele>1126.8</ele>
        <time>2014-10-04T07:43:09Z</time>
      </trkpt>
      <trkpt lat="45.48016" lon="5.91397">
        <ele>1126.8</ele>
        <time>2014-10-04T07:43:20Z</time>
      </trkpt>
      <trkpt lat="45.48013" lon="5.91387">
        <ele>1127.28</ele>
        <time>2014-10-04T07:43:23Z</time>
      </trkpt>
      <trkpt lat="45.48013" lon="5.91336">
        <ele>1128.73</ele>
        <time>2014-10-04T07:43:39Z</time>
      </trkpt>
      <trkpt lat="45.48026" lon="5.91295">
        <ele>1132.09</ele>
        <time>2014-10-04T07:43:56Z</time>
      </trkpt>
      <trkpt lat="45.48029" lon="5.91257">
        <ele>1135.94</ele>
        <time>2014-10-04T07:44:11Z</time>
      </trkpt>
      <trkpt lat="45.48027" lon="5.9124">
        <ele>1135.94</ele>
        <time>2014-10-04T07:44:26Z</time>
      </trkpt>
      <trkpt lat="45.48027" lon="5.91232">
        <ele>1136.9</ele>
        <time>2014-10-04T07:44:31Z</time>
      </trkpt>
      <trkpt lat="45.48025" lon="5.91197">
        <ele>1140.74</ele>
        <time>2014-10-04T07:44:47Z</time>
      </trkpt>
      <trkpt lat="45.48015" lon="5.91149">
        <ele>1144.59</ele>
        <time>2014-10-04T07:45:05Z</time>
      </trkpt>
      <trkpt lat="45.47993" lon="5.91114">
        <ele>1146.99</ele>
        <time>2014-10-04T07:45:20Z</time>
      </trkpt>
      <trkpt lat="45.47977" lon="5.91074">
        <ele>1148.91</ele>
        <time>2014-10-04T07:45:37Z</time>
      </trkpt>
      <trkpt lat="45.47957" lon="5.9102">
        <ele>1152.28</ele>
        <time>2014-10-04T07:45:58Z</time>
      </trkpt>
      <trkpt lat="45.47953" lon="5.90965">
        <ele>1155.16</ele>
        <time>2014-10-04T07:46:17Z</time>
      </trkpt>
      <trkpt lat="45.47947" lon="5.9093">
        <ele>1158.05</ele>
        <time>2014-10-04T07:46:32Z</time>
      </trkpt>
      <trkpt lat="45.47933" lon="5.90891">
        <ele>1158.05</ele>
        <time>2014-10-04T07:46:47Z</time>
      </trkpt>
      <trkpt lat="45.47927" lon="5.90852">
        <ele>1159.49</ele>
        <time>2014-10-04T07:47:04Z</time>
      </trkpt>
      <trkpt lat="45.47919" lon="5.90819">
        <ele>1161.41</ele>
        <time>2014-10-04T07:47:20Z</time>
      </trkpt>
      <trkpt lat="45.47922" lon="5.90801">
        <ele>1165.74</ele>
        <time>2014-10-04T07:47:32Z</time>
      </trkpt>
      <trkpt lat="45.47932" lon="5.90772">
        <ele>1167.66</ele>
        <time>2014-10-04T07:47:48Z</time>
      </trkpt>
      <trkpt lat="45.47931" lon="5.90731">
        <ele>1169.1</ele>
        <time>2014-10-04T07:48:04Z</time>
      </trkpt>
      <trkpt lat="45.47919" lon="5.90699">
        <ele>1171.02</ele>
        <time>2014-10-04T07:48:19Z</time>
      </trkpt>
      <trkpt lat="45.47902" lon="5.90657">
        <ele>1171.02</ele>
        <time>2014-10-04T07:48:36Z</time>
      </trkpt>
      <trkpt lat="45.47899" lon="5.90618">
        <ele>1172.47</ele>
        <time>2014-10-04T07:48:50Z</time>
      </trkpt>
      <trkpt lat="45.47896" lon="5.90564">
        <ele>1173.43</ele>
        <time>2014-10-04T07:49:06Z</time>
      </trkpt>
      <trkpt lat="45.47883" lon="5.90491">
        <ele>1173.43</ele>
        <time>2014-10-04T07:49:21Z</time>
      </trkpt>
      <trkpt lat="45.4789" lon="5.90429">
        <ele>1173.91</ele>
        <time>2014-10-04T07:49:36Z</time>
      </trkpt>
      <trkpt lat="45.47895" lon="5.90369">
        <ele>1174.39</ele>
        <time>2014-10-04T07:49:55Z</time>
      </trkpt>
      <trkpt lat="45.47898" lon="5.90309">
        <ele>1176.79</ele>
        <time>2014-10-04T07:50:14Z</time>
      </trkpt>
      <trkpt lat="45.47905" lon="5.90261">
        <ele>1176.79</ele>
        <time>2014-10-04T07:50:30Z</time>
      </trkpt>
      <trkpt lat="45.47917" lon="5.90224">
        <ele>1177.75</ele>
        <time>2014-10-04T07:50:45Z</time>
      </trkpt>
      <trkpt lat="45.47918" lon="5.90181">
        <ele>1177.75</ele>
        <time>2014-10-04T07:51:01Z</time>
      </trkpt>
      <trkpt lat="45.47914" lon="5.90136">
        <ele>1177.27</ele>
        <time>2014-10-04T07:51:13Z</time>
      </trkpt>
      <trkpt lat="45.47927" lon="5.90066">
        <ele>1177.27</ele>
        <time>2014-10-04T07:51:26Z</time>
      </trkpt>
      <trkpt lat="45.47941" lon="5.90053">
        <ele>1177.27</ele>
        <time>2014-10-04T07:51:31Z</time>
      </trkpt>
      <trkpt lat="45.47977" lon="5.9004">
        <ele>1177.27</ele>
        <time>2014-10-04T07:51:39Z</time>
      </trkpt>
      <trkpt lat="45.48027" lon="5.9002">
        <ele>1177.75</ele>
        <time>2014-10-04T07:51:52Z</time>
      </trkpt>
      <trkpt lat="45.48057" lon="5.90008">
        <ele>1177.75</ele>
        <time>2014-10-04T07:51:57Z</time>
      </trkpt>
      <trkpt lat="45.48103" lon="5.89987">
        <ele>1177.75</ele>
        <time>2014-10-04T07:52:04Z</time>
      </trkpt>
      <trkpt lat="45.48175" lon="5.89954">
        <ele>1178.23</ele>
        <time>2014-10-04T07:52:17Z</time>
      </trkpt>
      <trkpt lat="45.48179" lon="5.89953">
        <ele>1178.23</ele>
        <time>2014-10-04T07:52:18Z</time>
      </trkpt>
      <trkpt lat="45.48188" lon="5.8995">
        <ele>1178.23</ele>
        <time>2014-10-04T07:52:20Z</time>
      </trkpt>
      <trkpt lat="45.48214" lon="5.89937">
        <ele>1178.23</ele>
        <time>2014-10-04T07:52:26Z</time>
      </trkpt>
      <trkpt lat="45.4827" lon="5.89902">
        <ele>1178.71</ele>
        <time>2014-10-04T07:52:39Z</time>
      </trkpt>
      <trkpt lat="45.48324" lon="5.89849">
        <ele>1178.71</ele>
        <time>2014-10-04T07:52:55Z</time>
      </trkpt>
      <trkpt lat="45.48343" lon="5.89825">
        <ele>1179.19</ele>
        <time>2014-10-04T07:53:02Z</time>
      </trkpt>
      <trkpt lat="45.4838" lon="5.89788">
        <ele>1179.19</ele>
        <time>2014-10-04T07:53:16Z</time>
      </trkpt>
      <trkpt lat="45.48404" lon="5.89773">
        <ele>1179.19</ele>
        <time>2014-10-04T07:53:25Z</time>
      </trkpt>
      <trkpt lat="45.48422" lon="5.89731">
        <ele>1179.19</ele>
        <time>2014-10-04T07:53:39Z</time>
      </trkpt>
      <trkpt lat="45.48437" lon="5.89696">
        <ele>1179.19</ele>
        <time>2014-10-04T07:53:52Z</time>
      </trkpt>
      <trkpt lat="45.4845" lon="5.89665">
        <ele>1179.19</ele>
        <time>2014-10-04T07:54:03Z</time>
      </trkpt>
      <trkpt lat="45.48472" lon="5.89637">
        <ele>1179.67</ele>
        <time>2014-10-04T07:54:15Z</time>
      </trkpt>
      <trkpt lat="45.48475" lon="5.89634">
        <ele>1179.67</ele>
        <time>2014-10-04T07:54:17Z</time>
      </trkpt>
      <trkpt lat="45.48494" lon="5.89597">
        <ele>1179.67</ele>
        <time>2014-10-04T07:54:32Z</time>
      </trkpt>
      <trkpt lat="45.48497" lon="5.89577">
        <ele>1179.67</ele>
        <time>2014-10-04T07:54:40Z</time>
      </trkpt>
      <trkpt lat="45.48478" lon="5.89564">
        <ele>1179.67</ele>
        <time>2014-10-04T07:54:48Z</time>
      </trkpt>
      <trkpt lat="45.48455" lon="5.89543">
        <ele>1179.19</ele>
        <time>2014-10-04T07:55:02Z</time>
      </trkpt>
      <trkpt lat="45.48442" lon="5.89525">
        <ele>1179.19</ele>
        <time>2014-10-04T07:55:18Z</time>
      </trkpt>
      <trkpt lat="45.48437" lon="5.89522">
        <ele>1179.19</ele>
        <time>2014-10-04T07:55:35Z</time>
      </trkpt>
      <trkpt lat="45.48437" lon="5.89522">
        <ele>1179.19</ele>
        <time>2014-10-04T07:55:52Z</time>
      </trkpt>
      <trkpt lat="45.48447" lon="5.89524">
        <ele>1179.19</ele>
        <time>2014-10-04T07:56:09Z</time>
      </trkpt>
      <trkpt lat="45.48454" lon="5.89521">
        <ele>1179.19</ele>
        <time>2014-10-04T07:56:28Z</time>
      </trkpt>
      <trkpt lat="45.48467" lon="5.89515">
        <ele>1179.67</ele>
        <time>2014-10-04T07:56:42Z</time>
      </trkpt>
      <trkpt lat="45.48477" lon="5.89512">
        <ele>1179.67</ele>
        <time>2014-10-04T07:56:58Z</time>
      </trkpt>
      <trkpt lat="45.48478" lon="5.89512">
        <ele>1179.67</ele>
        <time>2014-10-04T07:56:59Z</time>
      </trkpt>
      <trkpt lat="45.48503" lon="5.8951">
        <ele>1179.67</ele>
        <time>2014-10-04T07:57:15Z</time>
      </trkpt>
      <trkpt lat="45.48518" lon="5.89505">
        <ele>1179.67</ele>
        <time>2014-10-04T07:57:28Z</time>
      </trkpt>
      <trkpt lat="45.48535" lon="5.89499">
        <ele>1179.67</ele>
        <time>2014-10-04T07:57:41Z</time>
      </trkpt>
      <trkpt lat="45.48555" lon="5.89496">
        <ele>1180.16</ele>
        <time>2014-10-04T07:57:55Z</time>
      </trkpt>
      <trkpt lat="45.48577" lon="5.89488">
        <ele>1180.16</ele>
        <time>2014-10-04T07:58:13Z</time>
      </trkpt>
      <trkpt lat="45.48593" lon="5.89481">
        <ele>1180.16</ele>
        <time>2014-10-04T07:58:26Z</time>
      </trkpt>
      <trkpt lat="45.48597" lon="5.89479">
        <ele>1180.64</ele>
        <time>2014-10-04T07:58:43Z</time>
      </trkpt>
      <trkpt lat="45.48612" lon="5.89466">
        <ele>1180.64</ele>
        <time>2014-10-04T07:58:57Z</time>
      </trkpt>
      <trkpt lat="45.4863" lon="5.89454">
        <ele>1180.64</ele>
        <time>2014-10-04T07:59:12Z</time>
      </trkpt>
      <trkpt lat="45.48642" lon="5.89446">
        <ele>1180.64</ele>
        <time>2014-10-04T07:59:27Z</time>
      </trkpt>
      <trkpt lat="45.48653" lon="5.89439">
        <ele>1181.12</ele>
        <time>2014-10-04T07:59:43Z</time>
      </trkpt>
      <trkpt lat="45.48666" lon="5.89433">
        <ele>1181.12</ele>
        <time>2014-10-04T08:00:00Z</time>
      </trkpt>
      <trkpt lat="45.48677" lon="5.89427">
        <ele>1181.12</ele>
        <time>2014-10-04T08:00:18Z</time>
      </trkpt>
      <trkpt lat="45.48684" lon="5.89427">
        <ele>1181.12</ele>
        <time>2014-10-04T08:00:33Z</time>
      </trkpt>
      <trkpt lat="45.48688" lon="5.89428">
        <ele>1181.12</ele>
        <time>2014-10-04T08:00:54Z</time>
      </trkpt>
      <trkpt lat="45.48692" lon="5.89427">
        <ele>1181.12</ele>
        <time>2014-10-04T08:01:03Z</time>
      </trkpt>
      <trkpt lat="45.48706" lon="5.8942">
        <ele>1181.6</ele>
        <time>2014-10-04T08:01:17Z</time>
      </trkpt>
      <trkpt lat="45.48717" lon="5.89417">
        <ele>1181.6</ele>
        <time>2014-10-04T08:01:29Z</time>
      </trkpt>
      <trkpt lat="45.48732" lon="5.89414">
        <ele>1181.6</ele>
        <time>2014-10-04T08:01:46Z</time>
      </trkpt>
      <trkpt lat="45.4874" lon="5.89407">
        <ele>1181.6</ele>
        <time>2014-10-04T08:02:05Z</time>
      </trkpt>
      <trkpt lat="45.4874" lon="5.89403">
        <ele>1182.08</ele>
        <time>2014-10-04T08:02:26Z</time>
      </trkpt>
      <trkpt lat="45.48745" lon="5.8941">
        <ele>1182.08</ele>
        <time>2014-10-04T08:02:36Z</time>
      </trkpt>
      <trkpt lat="45.48757" lon="5.89424">
        <ele>1182.08</ele>
        <time>2014-10-04T08:02:50Z</time>
      </trkpt>
      <trkpt lat="45.48767" lon="5.89431">
        <ele>1182.08</ele>
        <time>2014-10-04T08:03:01Z</time>
      </trkpt>
      <trkpt lat="45.48777" lon="5.89435">
        <ele>1182.08</ele>
        <time>2014-10-04T08:03:17Z</time>
      </trkpt>
      <trkpt lat="45.48784" lon="5.89443">
        <ele>1182.56</ele>
        <time>2014-10-04T08:03:31Z</time>
      </trkpt>
      <trkpt lat="45.48795" lon="5.89449">
        <ele>1182.56</ele>
        <time>2014-10-04T08:03:46Z</time>
      </trkpt>
      <trkpt lat="45.48817" lon="5.89464">
        <ele>1182.56</ele>
        <time>2014-10-04T08:03:59Z</time>
      </trkpt>
      <trkpt lat="45.48819" lon="5.89465">
        <ele>1182.56</ele>
        <time>2014-10-04T08:04:01Z</time>
      </trkpt>
      <trkpt lat="45.48843" lon="5.89481">
        <ele>1183.04</ele>
        <time>2014-10-04T08:04:16Z</time>
      </trkpt>
      <trkpt lat="45.48862" lon="5.89489">
        <ele>1183.04</ele>
        <time>2014-10-04T08:04:28Z</time>
      </trkpt>
      <trkpt lat="45.48892" lon="5.89498">
        <ele>1183.04</ele>
        <time>2014-10-04T08:04:47Z</time>
      </trkpt>
      <trkpt lat="45.48912" lon="5.89503">
        <ele>1183.52</ele>
        <time>2014-10-04T08:05:01Z</time>
      </trkpt>
      <trkpt lat="45.48936" lon="5.89491">
        <ele>1183.52</ele>
        <time>2014-10-04T08:05:20Z</time>
      </trkpt>
      <trkpt lat="45.48944" lon="5.89486">
        <ele>1183.52</ele>
        <time>2014-10-04T08:05:34Z</time>
      </trkpt>
      <trkpt lat="45.48957" lon="5.89482">
        <ele>1183.52</ele>
        <time>2014-10-04T08:05:50Z</time>
      </trkpt>
      <trkpt lat="45.48965" lon="5.89479">
        <ele>1183.52</ele>
        <time>2014-10-04T08:06:07Z</time>
      </trkpt>
      <trkpt lat="45.4898" lon="5.89479">
        <ele>1184</ele>
        <time>2014-10-04T08:06:27Z</time>
      </trkpt>
      <trkpt lat="45.48998" lon="5.89467">
        <ele>1184</ele>
        <time>2014-10-04T08:06:46Z</time>
      </trkpt>
      <trkpt lat="45.49016" lon="5.89447">
        <ele>1184</ele>
        <time>2014-10-04T08:07:02Z</time>
      </trkpt>
      <trkpt lat="45.49035" lon="5.89442">
        <ele>1184.48</ele>
        <time>2014-10-04T08:07:18Z</time>
      </trkpt>
      <trkpt lat="45.4905" lon="5.89436">
        <ele>1184.48</ele>
        <time>2014-10-04T08:07:33Z</time>
      </trkpt>
      <trkpt lat="45.4906" lon="5.8942">
        <ele>1184.48</ele>
        <time>2014-10-04T08:07:50Z</time>
      </trkpt>
      <trkpt lat="45.49072" lon="5.89407">
        <ele>1184.48</ele>
        <time>2014-10-04T08:08:08Z</time>
      </trkpt>
      <trkpt lat="45.49083" lon="5.89402">
        <ele>1184.96</ele>
        <time>2014-10-04T08:08:26Z</time>
      </trkpt>
      <trkpt lat="45.49092" lon="5.89398">
        <ele>1184.96</ele>
        <time>2014-10-04T08:08:44Z</time>
      </trkpt>
      <trkpt lat="45.49107" lon="5.89395">
        <ele>1184.96</ele>
        <time>2014-10-04T08:09:00Z</time>
      </trkpt>
      <trkpt lat="45.4913" lon="5.89389">
        <ele>1184.96</ele>
        <time>2014-10-04T08:09:19Z</time>
      </trkpt>
      <trkpt lat="45.49158" lon="5.89384">
        <ele>1184.96</ele>
        <time>2014-10-04T08:09:38Z</time>
      </trkpt>
      <trkpt lat="45.49171" lon="5.89377">
        <ele>1185.44</ele>
        <time>2014-10-04T08:09:57Z</time>
      </trkpt>
      <trkpt lat="45.49182" lon="5.89372">
        <ele>1185.44</ele>
        <time>2014-10-04T08:10:11Z</time>
      </trkpt>
      <trkpt lat="45.49192" lon="5.89368">
        <ele>1185.44</ele>
        <time>2014-10-04T08:10:26Z</time>
      </trkpt>
      <trkpt lat="45.49204" lon="5.89363">
        <ele>1185.44</ele>
        <time>2014-10-04T08:10:42Z</time>
      </trkpt>
      <trkpt lat="45.49214" lon="5.89359">
        <ele>1185.44</ele>
        <time>2014-10-04T08:10:57Z</time>
      </trkpt>
      <trkpt lat="45.49224" lon="5.89356">
        <ele>1185.92</ele>
        <time>2014-10-04T08:11:14Z</time>
      </trkpt>
      <trkpt lat="45.49235" lon="5.89356">
        <ele>1185.92</ele>
        <time>2014-10-04T08:11:32Z</time>
      </trkpt>
      <trkpt lat="45.49249" lon="5.89354">
        <ele>1185.92</ele>
        <time>2014-10-04T08:11:51Z</time>
      </trkpt>
      <trkpt lat="45.49263" lon="5.8936">
        <ele>1185.92</ele>
        <time>2014-10-04T08:12:06Z</time>
      </trkpt>
      <trkpt lat="45.49269" lon="5.89353">
        <ele>1186.4</ele>
        <time>2014-10-04T08:12:28Z</time>
      </trkpt>
      <trkpt lat="45.49209" lon="5.89408">
        <ele>1294.07</ele>
        <time>2014-10-04T08:12:49Z</time>
      </trkpt>
      <trkpt lat="45.49218" lon="5.89407">
        <ele>1333.97</ele>
        <time>2014-10-04T08:13:09Z</time>
      </trkpt>
      <trkpt lat="45.49227" lon="5.89416">
        <ele>1345.98</ele>
        <time>2014-10-04T08:13:26Z</time>
      </trkpt>
      <trkpt lat="45.49244" lon="5.8942">
        <ele>1366.65</ele>
        <time>2014-10-04T08:13:41Z</time>
      </trkpt>
      <trkpt lat="45.49261" lon="5.89431">
        <ele>1374.34</ele>
        <time>2014-10-04T08:13:54Z</time>
      </trkpt>
      <trkpt lat="45.49277" lon="5.89446">
        <ele>1377.71</ele>
        <time>2014-10-04T08:14:12Z</time>
      </trkpt>
      <trkpt lat="45.49285" lon="5.89445">
        <ele>1380.11</ele>
        <time>2014-10-04T08:14:27Z</time>
      </trkpt>
      <trkpt lat="45.49288" lon="5.89449">
        <ele>1383.47</ele>
        <time>2014-10-04T08:14:46Z</time>
      </trkpt>
      <trkpt lat="45.49293" lon="5.8946">
        <ele>1386.36</ele>
        <time>2014-10-04T08:15:02Z</time>
      </trkpt>
      <trkpt lat="45.49294" lon="5.89461">
        <ele>1386.84</ele>
        <time>2014-10-04T08:15:05Z</time>
      </trkpt>
      <trkpt lat="45.49299" lon="5.89468">
        <ele>1388.76</ele>
        <time>2014-10-04T08:15:22Z</time>
      </trkpt>
      <trkpt lat="45.49302" lon="5.89476">
        <ele>1391.17</ele>
        <time>2014-10-04T08:15:38Z</time>
      </trkpt>
      <trkpt lat="45.49308" lon="5.8948">
        <ele>1393.57</ele>
        <time>2014-10-04T08:15:56Z</time>
      </trkpt>
      <trkpt lat="45.49314" lon="5.89486">
        <ele>1396.45</ele>
        <time>2014-10-04T08:16:14Z</time>
      </trkpt>
      <trkpt lat="45.49324" lon="5.89499">
        <ele>1399.82</ele>
        <time>2014-10-04T08:16:34Z</time>
      </trkpt>
      <trkpt lat="45.4933" lon="5.89506">
        <ele>1402.7</ele>
        <time>2014-10-04T08:16:52Z</time>
      </trkpt>
      <trkpt lat="45.49337" lon="5.89513">
        <ele>1405.1</ele>
        <time>2014-10-04T08:17:09Z</time>
      </trkpt>
      <trkpt lat="45.49344" lon="5.89523">
        <ele>1408.47</ele>
        <time>2014-10-04T08:17:27Z</time>
      </trkpt>
      <trkpt lat="45.49355" lon="5.89532">
        <ele>1411.83</ele>
        <time>2014-10-04T08:17:46Z</time>
      </trkpt>
      <trkpt lat="45.49362" lon="5.89539">
        <ele>1415.68</ele>
        <time>2014-10-04T08:18:02Z</time>
      </trkpt>
      <trkpt lat="45.49369" lon="5.89544">
        <ele>1419.04</ele>
        <time>2014-10-04T08:18:19Z</time>
      </trkpt>
      <trkpt lat="45.49371" lon="5.89543">
        <ele>1420</ele>
        <time>2014-10-04T08:18:37Z</time>
      </trkpt>
      <trkpt lat="45.49376" lon="5.89545">
        <ele>1426.73</ele>
        <time>2014-10-04T08:19:00Z</time>
      </trkpt>
      <trkpt lat="45.49384" lon="5.89559">
        <ele>1433.94</ele>
        <time>2014-10-04T08:19:16Z</time>
      </trkpt>
      <trkpt lat="45.49388" lon="5.89566">
        <ele>1435.87</ele>
        <time>2014-10-04T08:19:30Z</time>
      </trkpt>
      <trkpt lat="45.49391" lon="5.8957">
        <ele>1436.83</ele>
        <time>2014-10-04T08:19:46Z</time>
      </trkpt>
      <trkpt lat="45.49396" lon="5.89573">
        <ele>1436.35</ele>
        <time>2014-10-04T08:20:02Z</time>
      </trkpt>
      <trkpt lat="45.49398" lon="5.89575">
        <ele>1436.35</ele>
        <time>2014-10-04T08:20:19Z</time>
      </trkpt>
      <trkpt lat="45.49404" lon="5.8958">
        <ele>1437.31</ele>
        <time>2014-10-04T08:20:34Z</time>
      </trkpt>
      <trkpt lat="45.49412" lon="5.8959">
        <ele>1439.23</ele>
        <time>2014-10-04T08:20:50Z</time>
      </trkpt>
      <trkpt lat="45.49417" lon="5.896">
        <ele>1439.71</ele>
        <time>2014-10-04T08:21:08Z</time>
      </trkpt>
      <trkpt lat="45.49423" lon="5.89608">
        <ele>1441.15</ele>
        <time>2014-10-04T08:21:23Z</time>
      </trkpt>
      <trkpt lat="45.49428" lon="5.89611">
        <ele>1441.63</ele>
        <time>2014-10-04T08:21:43Z</time>
      </trkpt>
      <trkpt lat="45.49438" lon="5.89615">
        <ele>1443.08</ele>
        <time>2014-10-04T08:21:57Z</time>
      </trkpt>
      <trkpt lat="45.49448" lon="5.89618">
        <ele>1444.04</ele>
        <time>2014-10-04T08:22:12Z</time>
      </trkpt>
      <trkpt lat="45.49456" lon="5.89621">
        <ele>1444.52</ele>
        <time>2014-10-04T08:22:29Z</time>
      </trkpt>
      <trkpt lat="45.49468" lon="5.89627">
        <ele>1445.48</ele>
        <time>2014-10-04T08:22:45Z</time>
      </trkpt>
      <trkpt lat="45.49483" lon="5.89632">
        <ele>1446.44</ele>
        <time>2014-10-04T08:23:02Z</time>
      </trkpt>
      <trkpt lat="45.49492" lon="5.89634">
        <ele>1445.48</ele>
        <time>2014-10-04T08:23:16Z</time>
      </trkpt>
      <trkpt lat="45.49506" lon="5.89637">
        <ele>1445.96</ele>
        <time>2014-10-04T08:23:31Z</time>
      </trkpt>
      <trkpt lat="45.4951" lon="5.8964">
        <ele>1447.88</ele>
        <time>2014-10-04T08:23:39Z</time>
      </trkpt>
      <trkpt lat="45.4953" lon="5.89643">
        <ele>1446.92</ele>
        <time>2014-10-04T08:23:54Z</time>
      </trkpt>
      <trkpt lat="45.49533" lon="5.89642">
        <ele>1446.44</ele>
        <time>2014-10-04T08:23:56Z</time>
      </trkpt>
      <trkpt lat="45.49548" lon="5.89634">
        <ele>1447.4</ele>
        <time>2014-10-04T08:24:10Z</time>
      </trkpt>
      <trkpt lat="45.4955" lon="5.89634">
        <ele>1445</ele>
        <time>2014-10-04T08:24:22Z</time>
      </trkpt>
      <trkpt lat="45.4955" lon="5.89637">
        <ele>1445</ele>
        <time>2014-10-04T08:24:49Z</time>
      </trkpt>
      <trkpt lat="45.49551" lon="5.89636">
        <ele>1444.52</ele>
        <time>2014-10-04T08:25:18Z</time>
      </trkpt>
      <trkpt lat="45.49551" lon="5.89634">
        <ele>1445</ele>
        <time>2014-10-04T08:25:49Z</time>
      </trkpt>
      <trkpt lat="45.49551" lon="5.89634">
        <ele>1445.48</ele>
        <time>2014-10-04T08:26:15Z</time>
      </trkpt>
      <trkpt lat="45.49552" lon="5.89635">
        <ele>1445.96</ele>
        <time>2014-10-04T08:26:48Z</time>
      </trkpt>
      <trkpt lat="45.49551" lon="5.89635">
        <ele>1445.96</ele>
        <time>2014-10-04T08:27:17Z</time>
      </trkpt>
      <trkpt lat="45.49546" lon="5.89634">
        <ele>1445.48</ele>
        <time>2014-10-04T08:27:36Z</time>
      </trkpt>
      <trkpt lat="45.49546" lon="5.89633">
        <ele>1446.92</ele>
        <time>2014-10-04T08:27:59Z</time>
      </trkpt>
      <trkpt lat="45.49548" lon="5.89633">
        <ele>1446.92</ele>
        <time>2014-10-04T08:28:19Z</time>
      </trkpt>
      <trkpt lat="45.4955" lon="5.89633">
        <ele>1446.44</ele>
        <time>2014-10-04T08:28:40Z</time>
      </trkpt>
      <trkpt lat="45.4955" lon="5.89633">
        <ele>1445.48</ele>
        <time>2014-10-04T08:29:03Z</time>
      </trkpt>
      <trkpt lat="45.4955" lon="5.89632">
        <ele>1445</ele>
        <time>2014-10-04T08:29:12Z</time>
      </trkpt>
      <trkpt lat="45.49576" lon="5.89643">
        <ele>1442.6</ele>
        <time>2014-10-04T08:29:24Z</time>
      </trkpt>
      <trkpt lat="45.49593" lon="5.89651">
        <ele>1441.15</ele>
        <time>2014-10-04T08:29:39Z</time>
      </trkpt>
      <trkpt lat="45.49618" lon="5.89658">
        <ele>1440.67</ele>
        <time>2014-10-04T08:29:50Z</time>
      </trkpt>
      <trkpt lat="45.49647" lon="5.89691">
        <ele>1440.19</ele>
        <time>2014-10-04T08:30:03Z</time>
      </trkpt>
      <trkpt lat="45.49662" lon="5.897">
        <ele>1440.19</ele>
        <time>2014-10-04T08:30:08Z</time>
      </trkpt>
      <trkpt lat="45.49668" lon="5.89732">
        <ele>1440.19</ele>
        <time>2014-10-04T08:30:15Z</time>
      </trkpt>
      <trkpt lat="45.49685" lon="5.89778">
        <ele>1439.71</ele>
        <time>2014-10-04T08:30:28Z</time>
      </trkpt>
      <trkpt lat="45.49695" lon="5.89808">
        <ele>1439.71</ele>
        <time>2014-10-04T08:30:35Z</time>
      </trkpt>
      <trkpt lat="45.49706" lon="5.89841">
        <ele>1439.23</ele>
        <time>2014-10-04T08:30:45Z</time>
      </trkpt>
      <trkpt lat="45.49745" lon="5.89832">
        <ele>1439.71</ele>
        <time>2014-10-04T08:30:59Z</time>
      </trkpt>
      <trkpt lat="45.49772" lon="5.8984">
        <ele>1439.23</ele>
        <time>2014-10-04T08:31:08Z</time>
      </trkpt>
      <trkpt lat="45.49796" lon="5.89849">
        <ele>1439.23</ele>
        <time>2014-10-04T08:31:14Z</time>
      </trkpt>
      <trkpt lat="45.49846" lon="5.89851">
        <ele>1439.23</ele>
        <time>2014-10-04T08:31:27Z</time>
      </trkpt>
      <trkpt lat="45.49902" lon="5.89859">
        <ele>1428.66</ele>
        <time>2014-10-04T08:31:38Z</time>
      </trkpt>
      <trkpt lat="45.49922" lon="5.89857">
        <ele>1417.12</ele>
        <time>2014-10-04T08:31:47Z</time>
      </trkpt>
      <trkpt lat="45.49942" lon="5.89837">
        <ele>1402.7</ele>
        <time>2014-10-04T08:31:56Z</time>
      </trkpt>
      <trkpt lat="45.49958" lon="5.89817">
        <ele>1392.61</ele>
        <time>2014-10-04T08:32:06Z</time>
      </trkpt>
      <trkpt lat="45.49973" lon="5.89796">
        <ele>1382.03</ele>
        <time>2014-10-04T08:32:20Z</time>
      </trkpt>
      <trkpt lat="45.50003" lon="5.89787">
        <ele>1377.23</ele>
        <time>2014-10-04T08:32:30Z</time>
      </trkpt>
      <trkpt lat="45.50006" lon="5.89787">
        <ele>1376.26</ele>
        <time>2014-10-04T08:32:31Z</time>
      </trkpt>
      <trkpt lat="45.50026" lon="5.89807">
        <ele>1370.02</ele>
        <time>2014-10-04T08:32:42Z</time>
      </trkpt>
      <trkpt lat="45.5003" lon="5.89815">
        <ele>1369.05</ele>
        <time>2014-10-04T08:32:44Z</time>
      </trkpt>
      <trkpt lat="45.50046" lon="5.89834">
        <ele>1366.65</ele>
        <time>2014-10-04T08:32:48Z</time>
      </trkpt>
      <trkpt lat="45.50057" lon="5.89851">
        <ele>1364.73</ele>
        <time>2014-10-04T08:32:51Z</time>
      </trkpt>
      <trkpt lat="45.50105" lon="5.89896">
        <ele>1357.04</ele>
        <time>2014-10-04T08:33:04Z</time>
      </trkpt>
      <trkpt lat="45.50118" lon="5.89911">
        <ele>1355.6</ele>
        <time>2014-10-04T08:33:11Z</time>
      </trkpt>
      <trkpt lat="45.50128" lon="5.89924">
        <ele>1355.6</ele>
        <time>2014-10-04T08:33:17Z</time>
      </trkpt>
      <trkpt lat="45.5014" lon="5.89927">
        <ele>1355.6</ele>
        <time>2014-10-04T08:33:22Z</time>
      </trkpt>
      <trkpt lat="45.50156" lon="5.89941">
        <ele>1355.6</ele>
        <time>2014-10-04T08:33:30Z</time>
      </trkpt>
      <trkpt lat="45.50182" lon="5.89973">
        <ele>1354.63</ele>
        <time>2014-10-04T08:33:44Z</time>
      </trkpt>
      <trkpt lat="45.50171" lon="5.90019">
        <ele>1349.83</ele>
        <time>2014-10-04T08:33:56Z</time>
      </trkpt>
      <trkpt lat="45.50158" lon="5.90075">
        <ele>1347.91</ele>
        <time>2014-10-04T08:34:07Z</time>
      </trkpt>
      <trkpt lat="45.50167" lon="5.90131">
        <ele>1346.94</ele>
        <time>2014-10-04T08:34:21Z</time>
      </trkpt>
      <trkpt lat="45.50166" lon="5.90173">
        <ele>1346.46</ele>
        <time>2014-10-04T08:34:28Z</time>
      </trkpt>
      <trkpt lat="45.50181" lon="5.90209">
        <ele>1346.46</ele>
        <time>2014-10-04T08:34:36Z</time>
      </trkpt>
      <trkpt lat="45.50204" lon="5.90232">
        <ele>1345.5</ele>
        <time>2014-10-04T08:34:49Z</time>
      </trkpt>
      <trkpt lat="45.50223" lon="5.90269">
        <ele>1345.02</ele>
        <time>2014-10-04T08:34:58Z</time>
      </trkpt>
      <trkpt lat="45.50236" lon="5.90286">
        <ele>1344.54</ele>
        <time>2014-10-04T08:35:07Z</time>
      </trkpt>
      <trkpt lat="45.5026" lon="5.90353">
        <ele>1342.62</ele>
        <time>2014-10-04T08:35:21Z</time>
      </trkpt>
      <trkpt lat="45.50267" lon="5.90384">
        <ele>1342.14</ele>
        <time>2014-10-04T08:35:25Z</time>
      </trkpt>
      <trkpt lat="45.50269" lon="5.904">
        <ele>1341.66</ele>
        <time>2014-10-04T08:35:27Z</time>
      </trkpt>
      <trkpt lat="45.50267" lon="5.9045">
        <ele>1341.18</ele>
        <time>2014-10-04T08:35:33Z</time>
      </trkpt>
      <trkpt lat="45.50266" lon="5.90463">
        <ele>1340.7</ele>
        <time>2014-10-04T08:35:35Z</time>
      </trkpt>
      <trkpt lat="45.50257" lon="5.90495">
        <ele>1340.22</ele>
        <time>2014-10-04T08:35:40Z</time>
      </trkpt>
      <trkpt lat="45.50247" lon="5.90523">
        <ele>1339.73</ele>
        <time>2014-10-04T08:35:44Z</time>
      </trkpt>
      <trkpt lat="45.50239" lon="5.90573">
        <ele>1339.73</ele>
        <time>2014-10-04T08:35:49Z</time>
      </trkpt>
      <trkpt lat="45.50248" lon="5.90607">
        <ele>1336.85</ele>
        <time>2014-10-04T08:35:53Z</time>
      </trkpt>
      <trkpt lat="45.50258" lon="5.90621">
        <ele>1335.89</ele>
        <time>2014-10-04T08:35:55Z</time>
      </trkpt>
      <trkpt lat="45.50263" lon="5.90657">
        <ele>1334.45</ele>
        <time>2014-10-04T08:35:59Z</time>
      </trkpt>
      <trkpt lat="45.50295" lon="5.90699">
        <ele>1327.24</ele>
        <time>2014-10-04T08:36:06Z</time>
      </trkpt>
      <trkpt lat="45.50309" lon="5.90726">
        <ele>1325.8</ele>
        <time>2014-10-04T08:36:11Z</time>
      </trkpt>
      <trkpt lat="45.50315" lon="5.90776">
        <ele>1324.83</ele>
        <time>2014-10-04T08:36:20Z</time>
      </trkpt>
      <trkpt lat="45.50342" lon="5.90877">
        <ele>1319.55</ele>
        <time>2014-10-04T08:36:29Z</time>
      </trkpt>
      <trkpt lat="45.50361" lon="5.9094">
        <ele>1316.66</ele>
        <time>2014-10-04T08:36:34Z</time>
      </trkpt>
      <trkpt lat="45.50389" lon="5.91004">
        <ele>1313.3</ele>
        <time>2014-10-04T08:36:40Z</time>
      </trkpt>
      <trkpt lat="45.50398" lon="5.91021">
        <ele>1306.09</ele>
        <time>2014-10-04T08:36:47Z</time>
      </trkpt>
      <trkpt lat="45.50398" lon="5.91014">
        <ele>1298.88</ele>
        <time>2014-10-04T08:36:57Z</time>
      </trkpt>
      <trkpt lat="45.50397" lon="5.91008">
        <ele>1291.19</ele>
        <time>2014-10-04T08:37:06Z</time>
      </trkpt>
      <trkpt lat="45.50422" lon="5.9099">
        <ele>1273.88</ele>
        <time>2014-10-04T08:37:17Z</time>
      </trkpt>
      <trkpt lat="45.50434" lon="5.9098">
        <ele>1270.04</ele>
        <time>2014-10-04T08:37:20Z</time>
      </trkpt>
      <trkpt lat="45.50463" lon="5.91">
        <ele>1264.75</ele>
        <time>2014-10-04T08:37:29Z</time>
      </trkpt>
      <trkpt lat="45.50463" lon="5.91027">
        <ele>1263.79</ele>
        <time>2014-10-04T08:37:33Z</time>
      </trkpt>
      <trkpt lat="45.50448" lon="5.91086">
        <ele>1260.91</ele>
        <time>2014-10-04T08:37:42Z</time>
      </trkpt>
      <trkpt lat="45.50418" lon="5.91187">
        <ele>1258.98</ele>
        <time>2014-10-04T08:37:51Z</time>
      </trkpt>
      <trkpt lat="45.50393" lon="5.91281">
        <ele>1258.02</ele>
        <time>2014-10-04T08:37:58Z</time>
      </trkpt>
      <trkpt lat="45.50383" lon="5.91313">
        <ele>1256.1</ele>
        <time>2014-10-04T08:38:02Z</time>
      </trkpt>
      <trkpt lat="45.50394" lon="5.91429">
        <ele>1254.66</ele>
        <time>2014-10-04T08:38:11Z</time>
      </trkpt>
      <trkpt lat="45.50402" lon="5.9146">
        <ele>1254.18</ele>
        <time>2014-10-04T08:38:14Z</time>
      </trkpt>
      <trkpt lat="45.50445" lon="5.91512">
        <ele>1252.25</ele>
        <time>2014-10-04T08:38:23Z</time>
      </trkpt>
      <trkpt lat="45.50534" lon="5.91558">
        <ele>1250.33</ele>
        <time>2014-10-04T08:38:36Z</time>
      </trkpt>
      <trkpt lat="45.50588" lon="5.91596">
        <ele>1242.16</ele>
        <time>2014-10-04T08:38:43Z</time>
      </trkpt>
      <trkpt lat="45.50625" lon="5.91674">
        <ele>1232.55</ele>
        <time>2014-10-04T08:38:51Z</time>
      </trkpt>
      <trkpt lat="45.50657" lon="5.91698">
        <ele>1227.74</ele>
        <time>2014-10-04T08:38:56Z</time>
      </trkpt>
      <trkpt lat="45.50666" lon="5.91709">
        <ele>1224.38</ele>
        <time>2014-10-04T08:38:58Z</time>
      </trkpt>
      <trkpt lat="45.50684" lon="5.91729">
        <ele>1220.05</ele>
        <time>2014-10-04T08:39:03Z</time>
      </trkpt>
      <trkpt lat="45.50693" lon="5.9178">
        <ele>1214.76</ele>
        <time>2014-10-04T08:39:09Z</time>
      </trkpt>
      <trkpt lat="45.50744" lon="5.91882">
        <ele>1196.5</ele>
        <time>2014-10-04T08:39:19Z</time>
      </trkpt>
      <trkpt lat="45.50764" lon="5.91941">
        <ele>1191.21</ele>
        <time>2014-10-04T08:39:27Z</time>
      </trkpt>
      <trkpt lat="45.5077" lon="5.91966">
        <ele>1186.88</ele>
        <time>2014-10-04T08:39:30Z</time>
      </trkpt>
      <trkpt lat="45.50804" lon="5.92024">
        <ele>1184</ele>
        <time>2014-10-04T08:39:37Z</time>
      </trkpt>
      <trkpt lat="45.50821" lon="5.9204">
        <ele>1182.08</ele>
        <time>2014-10-04T08:39:39Z</time>
      </trkpt>
      <trkpt lat="45.50876" lon="5.92068">
        <ele>1173.43</ele>
        <time>2014-10-04T08:39:47Z</time>
      </trkpt>
      <trkpt lat="45.50892" lon="5.92074">
        <ele>1168.62</ele>
        <time>2014-10-04T08:39:55Z</time>
      </trkpt>
      <trkpt lat="45.50912" lon="5.92021">
        <ele>1142.18</ele>
        <time>2014-10-04T08:40:09Z</time>
      </trkpt>
      <trkpt lat="45.50912" lon="5.92018">
        <ele>1132.57</ele>
        <time>2014-10-04T08:40:15Z</time>
      </trkpt>
      <trkpt lat="45.50935" lon="5.92051">
        <ele>1122.96</ele>
        <time>2014-10-04T08:40:23Z</time>
      </trkpt>
      <trkpt lat="45.50942" lon="5.92057">
        <ele>1117.67</ele>
        <time>2014-10-04T08:40:27Z</time>
      </trkpt>
      <trkpt lat="45.5095" lon="5.92068">
        <ele>1114.31</ele>
        <time>2014-10-04T08:40:30Z</time>
      </trkpt>
      <trkpt lat="45.50978" lon="5.92124">
        <ele>1100.37</ele>
        <time>2014-10-04T08:40:43Z</time>
      </trkpt>
      <trkpt lat="45.51009" lon="5.92206">
        <ele>1087.39</ele>
        <time>2014-10-04T08:40:54Z</time>
      </trkpt>
      <trkpt lat="45.51039" lon="5.92239">
        <ele>1075.37</ele>
        <time>2014-10-04T08:41:05Z</time>
      </trkpt>
      <trkpt lat="45.5108" lon="5.92241">
        <ele>1070.57</ele>
        <time>2014-10-04T08:41:16Z</time>
      </trkpt>
      <trkpt lat="45.51085" lon="5.92238">
        <ele>1069.6</ele>
        <time>2014-10-04T08:41:17Z</time>
      </trkpt>
      <trkpt lat="45.51089" lon="5.92228">
        <ele>1066.24</ele>
        <time>2014-10-04T08:41:20Z</time>
      </trkpt>
      <trkpt lat="45.51113" lon="5.92211">
        <ele>1055.67</ele>
        <time>2014-10-04T08:41:24Z</time>
      </trkpt>
      <trkpt lat="45.51134" lon="5.92194">
        <ele>1047.97</ele>
        <time>2014-10-04T08:41:30Z</time>
      </trkpt>
      <trkpt lat="45.51168" lon="5.92206">
        <ele>1034.52</ele>
        <time>2014-10-04T08:41:44Z</time>
      </trkpt>
      <trkpt lat="45.51185" lon="5.92219">
        <ele>1026.34</ele>
        <time>2014-10-04T08:41:49Z</time>
      </trkpt>
      <trkpt lat="45.51192" lon="5.92282">
        <ele>1010</ele>
        <time>2014-10-04T08:41:54Z</time>
      </trkpt>
      <trkpt lat="45.51208" lon="5.92303">
        <ele>998.47</ele>
        <time>2014-10-04T08:41:59Z</time>
      </trkpt>
      <trkpt lat="45.51214" lon="5.92307">
        <ele>996.06</ele>
        <time>2014-10-04T08:42:01Z</time>
      </trkpt>
      <trkpt lat="45.5122" lon="5.92321">
        <ele>993.66</ele>
        <time>2014-10-04T08:42:04Z</time>
      </trkpt>
      <trkpt lat="45.51238" lon="5.92364">
        <ele>979.24</ele>
        <time>2014-10-04T08:42:12Z</time>
      </trkpt>
      <trkpt lat="45.51258" lon="5.92391">
        <ele>968.18</ele>
        <time>2014-10-04T08:42:21Z</time>
      </trkpt>
      <trkpt lat="45.51278" lon="5.92438">
        <ele>957.61</ele>
        <time>2014-10-04T08:42:32Z</time>
      </trkpt>
      <trkpt lat="45.51313" lon="5.92471">
        <ele>945.59</ele>
        <time>2014-10-04T08:42:44Z</time>
      </trkpt>
      <trkpt lat="45.51341" lon="5.92524">
        <ele>935.5</ele>
        <time>2014-10-04T08:42:52Z</time>
      </trkpt>
      <trkpt lat="45.51369" lon="5.92573">
        <ele>920.12</ele>
        <time>2014-10-04T08:43:02Z</time>
      </trkpt>
      <trkpt lat="45.51374" lon="5.92573">
        <ele>918.2</ele>
        <time>2014-10-04T08:43:04Z</time>
      </trkpt>
      <trkpt lat="45.51404" lon="5.92627">
        <ele>910.99</ele>
        <time>2014-10-04T08:43:13Z</time>
      </trkpt>
      <trkpt lat="45.51415" lon="5.92661">
        <ele>910.51</ele>
        <time>2014-10-04T08:43:17Z</time>
      </trkpt>
      <trkpt lat="45.51425" lon="5.92729">
        <ele>908.1</ele>
        <time>2014-10-04T08:43:28Z</time>
      </trkpt>
      <trkpt lat="45.51425" lon="5.92747">
        <ele>907.62</ele>
        <time>2014-10-04T08:43:31Z</time>
      </trkpt>
      <trkpt lat="45.51438" lon="5.92809">
        <ele>903.3</ele>
        <time>2014-10-04T08:43:39Z</time>
      </trkpt>
      <trkpt lat="45.51448" lon="5.92834">
        <ele>901.37</ele>
        <time>2014-10-04T08:43:43Z</time>
      </trkpt>
      <trkpt lat="45.51454" lon="5.92861">
        <ele>899.45</ele>
        <time>2014-10-04T08:43:47Z</time>
      </trkpt>
      <trkpt lat="45.51456" lon="5.92883">
        <ele>898.49</ele>
        <time>2014-10-04T08:43:50Z</time>
      </trkpt>
      <trkpt lat="45.51456" lon="5.92913">
        <ele>895.61</ele>
        <time>2014-10-04T08:43:55Z</time>
      </trkpt>
      <trkpt lat="45.5145" lon="5.9299">
        <ele>891.28</ele>
        <time>2014-10-04T08:44:04Z</time>
      </trkpt>
      <trkpt lat="45.51451" lon="5.93007">
        <ele>890.32</ele>
        <time>2014-10-04T08:44:06Z</time>
      </trkpt>
      <trkpt lat="45.5145" lon="5.93044">
        <ele>886.95</ele>
        <time>2014-10-04T08:44:11Z</time>
      </trkpt>
      <trkpt lat="45.51452" lon="5.93097">
        <ele>881.67</ele>
        <time>2014-10-04T08:44:20Z</time>
      </trkpt>
      <trkpt lat="45.51467" lon="5.9314">
        <ele>875.42</ele>
        <time>2014-10-04T08:44:26Z</time>
      </trkpt>
      <trkpt lat="45.51506" lon="5.93186">
        <ele>864.36</ele>
        <time>2014-10-04T08:44:33Z</time>
      </trkpt>
      <trkpt lat="45.51606" lon="5.93238">
        <ele>837.45</ele>
        <time>2014-10-04T08:44:46Z</time>
      </trkpt>
      <trkpt lat="45.51663" lon="5.93259">
        <ele>830.72</ele>
        <time>2014-10-04T08:44:54Z</time>
      </trkpt>
      <trkpt lat="45.51677" lon="5.93268">
        <ele>829.27</ele>
        <time>2014-10-04T08:44:56Z</time>
      </trkpt>
      <trkpt lat="45.51705" lon="5.93291">
        <ele>827.35</ele>
        <time>2014-10-04T08:45:01Z</time>
      </trkpt>
      <trkpt lat="45.51713" lon="5.93291">
        <ele>812.45</ele>
        <time>2014-10-04T08:45:09Z</time>
      </trkpt>
      <trkpt lat="45.51714" lon="5.93272">
        <ele>805.72</ele>
        <time>2014-10-04T08:45:14Z</time>
      </trkpt>
      <trkpt lat="45.51733" lon="5.93238">
        <ele>797.55</ele>
        <time>2014-10-04T08:45:25Z</time>
      </trkpt>
      <trkpt lat="45.51766" lon="5.93254">
        <ele>795.15</ele>
        <time>2014-10-04T08:45:33Z</time>
      </trkpt>
      <trkpt lat="45.51819" lon="5.93256">
        <ele>793.71</ele>
        <time>2014-10-04T08:45:43Z</time>
      </trkpt>
      <trkpt lat="45.51836" lon="5.93257">
        <ele>793.71</ele>
        <time>2014-10-04T08:45:46Z</time>
      </trkpt>
      <trkpt lat="45.51859" lon="5.93264">
        <ele>793.22</ele>
        <time>2014-10-04T08:45:50Z</time>
      </trkpt>
      <trkpt lat="45.5188" lon="5.93282">
        <ele>792.74</ele>
        <time>2014-10-04T08:45:57Z</time>
      </trkpt>
      <trkpt lat="45.51882" lon="5.93285">
        <ele>791.3</ele>
        <time>2014-10-04T08:46:04Z</time>
      </trkpt>
      <trkpt lat="45.51888" lon="5.93279">
        <ele>790.82</ele>
        <time>2014-10-04T08:46:10Z</time>
      </trkpt>
      <trkpt lat="45.51914" lon="5.93252">
        <ele>789.38</ele>
        <time>2014-10-04T08:46:23Z</time>
      </trkpt>
      <trkpt lat="45.51933" lon="5.93215">
        <ele>788.42</ele>
        <time>2014-10-04T08:46:38Z</time>
      </trkpt>
      <trkpt lat="45.51938" lon="5.93207">
        <ele>787.94</ele>
        <time>2014-10-04T08:46:43Z</time>
      </trkpt>
      <trkpt lat="45.51959" lon="5.93211">
        <ele>786.5</ele>
        <time>2014-10-04T08:46:50Z</time>
      </trkpt>
      <trkpt lat="45.5197" lon="5.9323">
        <ele>786.02</ele>
        <time>2014-10-04T08:46:54Z</time>
      </trkpt>
      <trkpt lat="45.51979" lon="5.93317">
        <ele>782.65</ele>
        <time>2014-10-04T08:47:05Z</time>
      </trkpt>
      <trkpt lat="45.51982" lon="5.93319">
        <ele>779.77</ele>
        <time>2014-10-04T08:47:12Z</time>
      </trkpt>
      <trkpt lat="45.52006" lon="5.9328">
        <ele>771.6</ele>
        <time>2014-10-04T08:47:28Z</time>
      </trkpt>
      <trkpt lat="45.52007" lon="5.93264">
        <ele>771.11</ele>
        <time>2014-10-04T08:47:34Z</time>
      </trkpt>
      <trkpt lat="45.5203" lon="5.9324">
        <ele>767.75</ele>
        <time>2014-10-04T08:47:49Z</time>
      </trkpt>
      <trkpt lat="45.52036" lon="5.93237">
        <ele>768.23</ele>
        <time>2014-10-04T08:47:54Z</time>
      </trkpt>
      <trkpt lat="45.5206" lon="5.93245">
        <ele>770.63</ele>
        <time>2014-10-04T08:48:11Z</time>
      </trkpt>
      <trkpt lat="45.52062" lon="5.93245">
        <ele>770.63</ele>
        <time>2014-10-04T08:48:12Z</time>
      </trkpt>
      <trkpt lat="45.52088" lon="5.93227">
        <ele>772.08</ele>
        <time>2014-10-04T08:48:30Z</time>
      </trkpt>
      <trkpt lat="45.52108" lon="5.93222">
        <ele>774.48</ele>
        <time>2014-10-04T08:48:44Z</time>
      </trkpt>
      <trkpt lat="45.52132" lon="5.93223">
        <ele>774.48</ele>
        <time>2014-10-04T08:49:01Z</time>
      </trkpt>
      <trkpt lat="45.52152" lon="5.93227">
        <ele>774</ele>
        <time>2014-10-04T08:49:17Z</time>
      </trkpt>
      <trkpt lat="45.52154" lon="5.93228">
        <ele>774</ele>
        <time>2014-10-04T08:49:19Z</time>
      </trkpt>
      <trkpt lat="45.52176" lon="5.93237">
        <ele>774.96</ele>
        <time>2014-10-04T08:49:35Z</time>
      </trkpt>
      <trkpt lat="45.52179" lon="5.93237">
        <ele>775.92</ele>
        <time>2014-10-04T08:49:37Z</time>
      </trkpt>
      <trkpt lat="45.52207" lon="5.93226">
        <ele>780.25</ele>
        <time>2014-10-04T08:49:53Z</time>
      </trkpt>
      <trkpt lat="45.52224" lon="5.9322">
        <ele>783.13</ele>
        <time>2014-10-04T08:50:08Z</time>
      </trkpt>
      <trkpt lat="45.52243" lon="5.9322">
        <ele>786.5</ele>
        <time>2014-10-04T08:50:22Z</time>
      </trkpt>
      <trkpt lat="45.52261" lon="5.93222">
        <ele>789.86</ele>
        <time>2014-10-04T08:50:37Z</time>
      </trkpt>
      <trkpt lat="45.52282" lon="5.93218">
        <ele>793.22</ele>
        <time>2014-10-04T08:50:53Z</time>
      </trkpt>
      <trkpt lat="45.52298" lon="5.93212">
        <ele>795.15</ele>
        <time>2014-10-04T08:51:06Z</time>
      </trkpt>
      <trkpt lat="45.52316" lon="5.93205">
        <ele>795.15</ele>
        <time>2014-10-04T08:51:21Z</time>
      </trkpt>
      <trkpt lat="45.52336" lon="5.93202">
        <ele>797.55</ele>
        <time>2014-10-04T08:51:37Z</time>
      </trkpt>
      <trkpt lat="45.52354" lon="5.93181">
        <ele>799.95</ele>
        <time>2014-10-04T08:51:57Z</time>
      </trkpt>
      <trkpt lat="45.52366" lon="5.93168">
        <ele>805.24</ele>
        <time>2014-10-04T08:52:17Z</time>
      </trkpt>
      <trkpt lat="45.52382" lon="5.93165">
        <ele>810.05</ele>
        <time>2014-10-04T08:52:32Z</time>
      </trkpt>
      <trkpt lat="45.52396" lon="5.93179">
        <ele>811.97</ele>
        <time>2014-10-04T08:52:51Z</time>
      </trkpt>
      <trkpt lat="45.52407" lon="5.93192">
        <ele>808.13</ele>
        <time>2014-10-04T08:53:05Z</time>
      </trkpt>
      <trkpt lat="45.52427" lon="5.93213">
        <ele>806.2</ele>
        <time>2014-10-04T08:53:23Z</time>
      </trkpt>
      <trkpt lat="45.52441" lon="5.93229">
        <ele>808.61</ele>
        <time>2014-10-04T08:53:39Z</time>
      </trkpt>
      <trkpt lat="45.52456" lon="5.93238">
        <ele>812.45</ele>
        <time>2014-10-04T08:53:55Z</time>
      </trkpt>
      <trkpt lat="45.52467" lon="5.93243">
        <ele>813.89</ele>
        <time>2014-10-04T08:54:06Z</time>
      </trkpt>
      <trkpt lat="45.52491" lon="5.93252">
        <ele>815.34</ele>
        <time>2014-10-04T08:54:23Z</time>
      </trkpt>
      <trkpt lat="45.52507" lon="5.9326">
        <ele>818.22</ele>
        <time>2014-10-04T08:54:36Z</time>
      </trkpt>
      <trkpt lat="45.52527" lon="5.93268">
        <ele>819.66</ele>
        <time>2014-10-04T08:54:52Z</time>
      </trkpt>
      <trkpt lat="45.52548" lon="5.93273">
        <ele>820.14</ele>
        <time>2014-10-04T08:55:05Z</time>
      </trkpt>
      <trkpt lat="45.52589" lon="5.93292">
        <ele>823.99</ele>
        <time>2014-10-04T08:55:18Z</time>
      </trkpt>
      <trkpt lat="45.52621" lon="5.93301">
        <ele>824.95</ele>
        <time>2014-10-04T08:55:31Z</time>
      </trkpt>
      <trkpt lat="45.52655" lon="5.93315">
        <ele>824.95</ele>
        <time>2014-10-04T08:55:44Z</time>
      </trkpt>
      <trkpt lat="45.5269" lon="5.93338">
        <ele>824.47</ele>
        <time>2014-10-04T08:55:56Z</time>
      </trkpt>
      <trkpt lat="45.5272" lon="5.93335">
        <ele>823.99</ele>
        <time>2014-10-04T08:56:07Z</time>
      </trkpt>
      <trkpt lat="45.52724" lon="5.93334">
        <ele>823.99</ele>
        <time>2014-10-04T08:56:08Z</time>
      </trkpt>
      <trkpt lat="45.5275" lon="5.9335">
        <ele>821.1</ele>
        <time>2014-10-04T08:56:14Z</time>
      </trkpt>
      <trkpt lat="45.52781" lon="5.93357">
        <ele>822.06</ele>
        <time>2014-10-04T08:56:20Z</time>
      </trkpt>
      <trkpt lat="45.52787" lon="5.93352">
        <ele>822.55</ele>
        <time>2014-10-04T08:56:33Z</time>
      </trkpt>
      <trkpt lat="45.52788" lon="5.93352">
        <ele>823.03</ele>
        <time>2014-10-04T08:57:02Z</time>
      </trkpt>
      <trkpt lat="45.52789" lon="5.93356">
        <ele>823.51</ele>
        <time>2014-10-04T08:57:31Z</time>
      </trkpt>
      <trkpt lat="45.52788" lon="5.93355">
        <ele>823.51</ele>
        <time>2014-10-04T08:57:54Z</time>
      </trkpt>
      <trkpt lat="45.5279" lon="5.93349">
        <ele>823.51</ele>
        <time>2014-10-04T08:58:21Z</time>
      </trkpt>
      <trkpt lat="45.5279" lon="5.93349">
        <ele>823.99</ele>
        <time>2014-10-04T08:58:32Z</time>
      </trkpt>
      <trkpt lat="45.52809" lon="5.93351">
        <ele>823.51</ele>
        <time>2014-10-04T08:58:38Z</time>
      </trkpt>
      <trkpt lat="45.52864" lon="5.93369">
        <ele>822.55</ele>
        <time>2014-10-04T08:58:48Z</time>
      </trkpt>
      <trkpt lat="45.52884" lon="5.93359">
        <ele>819.66</ele>
        <time>2014-10-04T08:58:53Z</time>
      </trkpt>
      <trkpt lat="45.52893" lon="5.93329">
        <ele>816.3</ele>
        <time>2014-10-04T08:58:59Z</time>
      </trkpt>
      <trkpt lat="45.52909" lon="5.93318">
        <ele>811.97</ele>
        <time>2014-10-04T08:59:02Z</time>
      </trkpt>
      <trkpt lat="45.52959" lon="5.93318">
        <ele>804.28</ele>
        <time>2014-10-04T08:59:10Z</time>
      </trkpt>
      <trkpt lat="45.52977" lon="5.93305">
        <ele>799.47</ele>
        <time>2014-10-04T08:59:14Z</time>
      </trkpt>
      <trkpt lat="45.53003" lon="5.93282">
        <ele>790.82</ele>
        <time>2014-10-04T08:59:22Z</time>
      </trkpt>
      <trkpt lat="45.53012" lon="5.9328">
        <ele>788.42</ele>
        <time>2014-10-04T08:59:24Z</time>
      </trkpt>
      <trkpt lat="45.53059" lon="5.9331">
        <ele>776.4</ele>
        <time>2014-10-04T08:59:34Z</time>
      </trkpt>
      <trkpt lat="45.53084" lon="5.93312">
        <ele>763.9</ele>
        <time>2014-10-04T08:59:44Z</time>
      </trkpt>
      <trkpt lat="45.53103" lon="5.93291">
        <ele>758.14</ele>
        <time>2014-10-04T08:59:48Z</time>
      </trkpt>
      <trkpt lat="45.53118" lon="5.93286">
        <ele>754.29</ele>
        <time>2014-10-04T08:59:51Z</time>
      </trkpt>
      <trkpt lat="45.53145" lon="5.93275">
        <ele>750.45</ele>
        <time>2014-10-04T08:59:59Z</time>
      </trkpt>
      <trkpt lat="45.53147" lon="5.93272">
        <ele>746.12</ele>
        <time>2014-10-04T09:00:11Z</time>
      </trkpt>
      <trkpt lat="45.53178" lon="5.93265">
        <ele>742.28</ele>
        <time>2014-10-04T09:00:19Z</time>
      </trkpt>
      <trkpt lat="45.53242" lon="5.9331">
        <ele>734.58</ele>
        <time>2014-10-04T09:00:30Z</time>
      </trkpt>
      <trkpt lat="45.53296" lon="5.93326">
        <ele>726.41</ele>
        <time>2014-10-04T09:00:40Z</time>
      </trkpt>
      <trkpt lat="45.53387" lon="5.93335">
        <ele>715.36</ele>
        <time>2014-10-04T09:00:51Z</time>
      </trkpt>
      <trkpt lat="45.53452" lon="5.93354">
        <ele>707.19</ele>
        <time>2014-10-04T09:01:00Z</time>
      </trkpt>
      <trkpt lat="45.53486" lon="5.93354">
        <ele>699.02</ele>
        <time>2014-10-04T09:01:07Z</time>
      </trkpt>
      <trkpt lat="45.53536" lon="5.93362">
        <ele>691.33</ele>
        <time>2014-10-04T09:01:15Z</time>
      </trkpt>
      <trkpt lat="45.53548" lon="5.93347">
        <ele>689.4</ele>
        <time>2014-10-04T09:01:19Z</time>
      </trkpt>
      <trkpt lat="45.53582" lon="5.93382">
        <ele>680.27</ele>
        <time>2014-10-04T09:01:33Z</time>
      </trkpt>
      <trkpt lat="45.53607" lon="5.9342">
        <ele>671.62</ele>
        <time>2014-10-04T09:01:43Z</time>
      </trkpt>
      <trkpt lat="45.53634" lon="5.93463">
        <ele>661.04</ele>
        <time>2014-10-04T09:01:57Z</time>
      </trkpt>
      <trkpt lat="45.53667" lon="5.93511">
        <ele>651.91</ele>
        <time>2014-10-04T09:02:09Z</time>
      </trkpt>
      <trkpt lat="45.53705" lon="5.93549">
        <ele>636.53</ele>
        <time>2014-10-04T09:02:24Z</time>
      </trkpt>
      <trkpt lat="45.5372" lon="5.93554">
        <ele>632.2</ele>
        <time>2014-10-04T09:02:36Z</time>
      </trkpt>
      <trkpt lat="45.53722" lon="5.93562">
        <ele>631.72</ele>
        <time>2014-10-04T09:02:49Z</time>
      </trkpt>
      <trkpt lat="45.53733" lon="5.93561">
        <ele>631.24</ele>
        <time>2014-10-04T09:03:07Z</time>
      </trkpt>
      <trkpt lat="45.53736" lon="5.93558">
        <ele>632.68</ele>
        <time>2014-10-04T09:03:21Z</time>
      </trkpt>
      <trkpt lat="45.53735" lon="5.93557">
        <ele>633.17</ele>
        <time>2014-10-04T09:03:39Z</time>
      </trkpt>
      <trkpt lat="45.53736" lon="5.93557">
        <ele>632.2</ele>
        <time>2014-10-04T09:04:00Z</time>
      </trkpt>
      <trkpt lat="45.53746" lon="5.93564">
        <ele>632.68</ele>
        <time>2014-10-04T09:04:23Z</time>
      </trkpt>
      <trkpt lat="45.53779" lon="5.93586">
        <ele>631.24</ele>
        <time>2014-10-04T09:04:32Z</time>
      </trkpt>
      <trkpt lat="45.53797" lon="5.93613">
        <ele>629.32</ele>
        <time>2014-10-04T09:04:41Z</time>
      </trkpt>
      <trkpt lat="45.53792" lon="5.93636">
        <ele>628.36</ele>
        <time>2014-10-04T09:04:54Z</time>
      </trkpt>
      <trkpt lat="45.53797" lon="5.93627">
        <ele>628.84</ele>
        <time>2014-10-04T09:05:10Z</time>
      </trkpt>
      <trkpt lat="45.538" lon="5.93627">
        <ele>629.32</ele>
        <time>2014-10-04T09:05:24Z</time>
      </trkpt>
      <trkpt lat="45.538" lon="5.93627">
        <ele>629.8</ele>
        <time>2014-10-04T09:05:26Z</time>
      </trkpt>
      <trkpt lat="45.53812" lon="5.93634">
        <ele>629.8</ele>
        <time>2014-10-04T09:05:31Z</time>
      </trkpt>
      <trkpt lat="45.5384" lon="5.9366">
        <ele>628.84</ele>
        <time>2014-10-04T09:05:43Z</time>
      </trkpt>
      <trkpt lat="45.53852" lon="5.9368">
        <ele>627.88</ele>
        <time>2014-10-04T09:05:57Z</time>
      </trkpt>
      <trkpt lat="45.53855" lon="5.93688">
        <ele>627.88</ele>
        <time>2014-10-04T09:06:13Z</time>
      </trkpt>
      <trkpt lat="45.53861" lon="5.93701">
        <ele>630.28</ele>
        <time>2014-10-04T09:06:30Z</time>
      </trkpt>
      <trkpt lat="45.53864" lon="5.93708">
        <ele>632.2</ele>
        <time>2014-10-04T09:06:44Z</time>
      </trkpt>
      <trkpt lat="45.53867" lon="5.93716">
        <ele>634.61</ele>
        <time>2014-10-04T09:06:57Z</time>
      </trkpt>
      <trkpt lat="45.53874" lon="5.93717">
        <ele>635.09</ele>
        <time>2014-10-04T09:07:01Z</time>
      </trkpt>
      <trkpt lat="45.539" lon="5.93715">
        <ele>638.93</ele>
        <time>2014-10-04T09:07:14Z</time>
      </trkpt>
      <trkpt lat="45.53917" lon="5.93725">
        <ele>641.34</ele>
        <time>2014-10-04T09:07:22Z</time>
      </trkpt>
      <trkpt lat="45.53936" lon="5.93733">
        <ele>642.78</ele>
        <time>2014-10-04T09:07:36Z</time>
      </trkpt>
      <trkpt lat="45.53945" lon="5.93766">
        <ele>639.89</ele>
        <time>2014-10-04T09:07:48Z</time>
      </trkpt>
      <trkpt lat="45.53947" lon="5.93773">
        <ele>639.41</ele>
        <time>2014-10-04T09:07:50Z</time>
      </trkpt>
      <trkpt lat="45.53975" lon="5.93797">
        <ele>637.97</ele>
        <time>2014-10-04T09:08:00Z</time>
      </trkpt>
      <trkpt lat="45.5399" lon="5.93813">
        <ele>637.01</ele>
        <time>2014-10-04T09:08:05Z</time>
      </trkpt>
      <trkpt lat="45.54022" lon="5.93842">
        <ele>632.68</ele>
        <time>2014-10-04T09:08:14Z</time>
      </trkpt>
      <trkpt lat="45.54037" lon="5.93859">
        <ele>629.32</ele>
        <time>2014-10-04T09:08:20Z</time>
      </trkpt>
      <trkpt lat="45.54051" lon="5.93875">
        <ele>625.47</ele>
        <time>2014-10-04T09:08:26Z</time>
      </trkpt>
      <trkpt lat="45.54049" lon="5.93899">
        <ele>621.63</ele>
        <time>2014-10-04T09:08:35Z</time>
      </trkpt>
      <trkpt lat="45.5405" lon="5.93896">
        <ele>619.71</ele>
        <time>2014-10-04T09:08:48Z</time>
      </trkpt>
      <trkpt lat="45.5405" lon="5.93896">
        <ele>619.71</ele>
        <time>2014-10-04T09:08:49Z</time>
      </trkpt>
      <trkpt lat="45.54053" lon="5.93915">
        <ele>617.3</ele>
        <time>2014-10-04T09:08:57Z</time>
      </trkpt>
      <trkpt lat="45.54075" lon="5.93928">
        <ele>610.57</ele>
        <time>2014-10-04T09:09:09Z</time>
      </trkpt>
      <trkpt lat="45.54093" lon="5.93932">
        <ele>604.33</ele>
        <time>2014-10-04T09:09:18Z</time>
      </trkpt>
      <trkpt lat="45.54131" lon="5.93969">
        <ele>594.71</ele>
        <time>2014-10-04T09:09:30Z</time>
      </trkpt>
      <trkpt lat="45.54171" lon="5.93973">
        <ele>589.43</ele>
        <time>2014-10-04T09:09:40Z</time>
      </trkpt>
      <trkpt lat="45.54176" lon="5.93972">
        <ele>587.5</ele>
        <time>2014-10-04T09:09:54Z</time>
      </trkpt>
      <trkpt lat="45.54176" lon="5.93971">
        <ele>586.06</ele>
        <time>2014-10-04T09:10:10Z</time>
      </trkpt>
      <trkpt lat="45.54176" lon="5.93971">
        <ele>585.58</ele>
        <time>2014-10-04T09:10:36Z</time>
      </trkpt>
      <trkpt lat="45.54177" lon="5.93973">
        <ele>585.1</ele>
        <time>2014-10-04T09:10:54Z</time>
      </trkpt>
      <trkpt lat="45.54177" lon="5.93974">
        <ele>584.62</ele>
        <time>2014-10-04T09:11:20Z</time>
      </trkpt>
      <trkpt lat="45.54177" lon="5.93974">
        <ele>584.14</ele>
        <time>2014-10-04T09:11:48Z</time>
      </trkpt>
      <trkpt lat="45.54177" lon="5.93974">
        <ele>583.66</ele>
        <time>2014-10-04T09:12:16Z</time>
      </trkpt>
      <trkpt lat="45.54177" lon="5.93973">
        <ele>584.62</ele>
        <time>2014-10-04T09:12:33Z</time>
      </trkpt>
      <trkpt lat="45.54182" lon="5.9399">
        <ele>583.18</ele>
        <time>2014-10-04T09:12:40Z</time>
      </trkpt>
      <trkpt lat="45.54189" lon="5.93999">
        <ele>579.33</ele>
        <time>2014-10-04T09:12:46Z</time>
      </trkpt>
      <trkpt lat="45.54224" lon="5.94009">
        <ele>574.04</ele>
        <time>2014-10-04T09:12:56Z</time>
      </trkpt>
      <trkpt lat="45.5424" lon="5.94019">
        <ele>573.08</ele>
        <time>2014-10-04T09:12:59Z</time>
      </trkpt>
      <trkpt lat="45.54258" lon="5.9404">
        <ele>572.12</ele>
        <time>2014-10-04T09:13:04Z</time>
      </trkpt>
      <trkpt lat="45.54292" lon="5.94066">
        <ele>570.2</ele>
        <time>2014-10-04T09:13:15Z</time>
      </trkpt>
      <trkpt lat="45.54297" lon="5.94069">
        <ele>569.72</ele>
        <time>2014-10-04T09:13:16Z</time>
      </trkpt>
      <trkpt lat="45.54318" lon="5.94111">
        <ele>564.91</ele>
        <time>2014-10-04T09:13:25Z</time>
      </trkpt>
      <trkpt lat="45.54336" lon="5.9414">
        <ele>563.47</ele>
        <time>2014-10-04T09:13:31Z</time>
      </trkpt>
      <trkpt lat="45.5435" lon="5.94149">
        <ele>562.99</ele>
        <time>2014-10-04T09:13:35Z</time>
      </trkpt>
      <trkpt lat="45.54374" lon="5.94148">
        <ele>561.07</ele>
        <time>2014-10-04T09:13:42Z</time>
      </trkpt>
      <trkpt lat="45.54389" lon="5.94152">
        <ele>560.11</ele>
        <time>2014-10-04T09:13:45Z</time>
      </trkpt>
      <trkpt lat="45.544" lon="5.94154">
        <ele>559.14</ele>
        <time>2014-10-04T09:13:47Z</time>
      </trkpt>
      <trkpt lat="45.54427" lon="5.94155">
        <ele>556.26</ele>
        <time>2014-10-04T09:13:51Z</time>
      </trkpt>
      <trkpt lat="45.5444" lon="5.94161">
        <ele>554.82</ele>
        <time>2014-10-04T09:13:54Z</time>
      </trkpt>
      <trkpt lat="45.54447" lon="5.94224">
        <ele>545.69</ele>
        <time>2014-10-04T09:14:05Z</time>
      </trkpt>
      <trkpt lat="45.54449" lon="5.94228">
        <ele>544.72</ele>
        <time>2014-10-04T09:14:06Z</time>
      </trkpt>
      <trkpt lat="45.54474" lon="5.94243">
        <ele>538.48</ele>
        <time>2014-10-04T09:14:11Z</time>
      </trkpt>
      <trkpt lat="45.54507" lon="5.9424">
        <ele>531.27</ele>
        <time>2014-10-04T09:14:15Z</time>
      </trkpt>
      <trkpt lat="45.54532" lon="5.94234">
        <ele>525.02</ele>
        <time>2014-10-04T09:14:19Z</time>
      </trkpt>
      <trkpt lat="45.54572" lon="5.94252">
        <ele>512.52</ele>
        <time>2014-10-04T09:14:28Z</time>
      </trkpt>
      <trkpt lat="45.54567" lon="5.94258">
        <ele>508.19</ele>
        <time>2014-10-04T09:14:31Z</time>
      </trkpt>
      <trkpt lat="45.5456" lon="5.94268">
        <ele>503.87</ele>
        <time>2014-10-04T09:14:34Z</time>
      </trkpt>
      <trkpt lat="45.54561" lon="5.94289">
        <ele>498.58</ele>
        <time>2014-10-04T09:14:38Z</time>
      </trkpt>
      <trkpt lat="45.54605" lon="5.94302">
        <ele>481.28</ele>
        <time>2014-10-04T09:14:47Z</time>
      </trkpt>
      <trkpt lat="45.54609" lon="5.94304">
        <ele>479.35</ele>
        <time>2014-10-04T09:14:48Z</time>
      </trkpt>
      <trkpt lat="45.54662" lon="5.94358">
        <ele>458.69</ele>
        <time>2014-10-04T09:15:01Z</time>
      </trkpt>
      <trkpt lat="45.54668" lon="5.94371">
        <ele>454.36</ele>
        <time>2014-10-04T09:15:04Z</time>
      </trkpt>
      <trkpt lat="45.54682" lon="5.94377">
        <ele>444.75</ele>
        <time>2014-10-04T09:15:10Z</time>
      </trkpt>
      <trkpt lat="45.54692" lon="5.94385">
        <ele>440.42</ele>
        <time>2014-10-04T09:15:13Z</time>
      </trkpt>
      <trkpt lat="45.54701" lon="5.9439">
        <ele>438.02</ele>
        <time>2014-10-04T09:15:15Z</time>
      </trkpt>
      <trkpt lat="45.54717" lon="5.94409">
        <ele>434.17</ele>
        <time>2014-10-04T09:15:18Z</time>
      </trkpt>
      <trkpt lat="45.5474" lon="5.94436">
        <ele>435.61</ele>
        <time>2014-10-04T09:15:22Z</time>
      </trkpt>
      <trkpt lat="45.5476" lon="5.94439">
        <ele>434.65</ele>
        <time>2014-10-04T09:15:26Z</time>
      </trkpt>
      <trkpt lat="45.54811" lon="5.94424">
        <ele>430.81</ele>
        <time>2014-10-04T09:15:34Z</time>
      </trkpt>
      <trkpt lat="45.54828" lon="5.94451">
        <ele>428.89</ele>
        <time>2014-10-04T09:15:38Z</time>
      </trkpt>
      <trkpt lat="45.54842" lon="5.94454">
        <ele>425.52</ele>
        <time>2014-10-04T09:15:42Z</time>
      </trkpt>
      <trkpt lat="45.54853" lon="5.94447">
        <ele>423.12</ele>
        <time>2014-10-04T09:15:45Z</time>
      </trkpt>
      <trkpt lat="45.54864" lon="5.94421">
        <ele>417.83</ele>
        <time>2014-10-04T09:15:50Z</time>
      </trkpt>
      <trkpt lat="45.54877" lon="5.94331">
        <ele>417.83</ele>
        <time>2014-10-04T09:15:58Z</time>
      </trkpt>
      <trkpt lat="45.54872" lon="5.94276">
        <ele>418.31</ele>
        <time>2014-10-04T09:16:03Z</time>
      </trkpt>
      <trkpt lat="45.54875" lon="5.94225">
        <ele>419.27</ele>
        <time>2014-10-04T09:16:11Z</time>
      </trkpt>
      <trkpt lat="45.54874" lon="5.94225">
        <ele>417.35</ele>
        <time>2014-10-04T09:16:22Z</time>
      </trkpt>
      <trkpt lat="45.54876" lon="5.94221">
        <ele>416.39</ele>
        <time>2014-10-04T09:16:33Z</time>
      </trkpt>
      <trkpt lat="45.54877" lon="5.9421">
        <ele>415.43</ele>
        <time>2014-10-04T09:16:41Z</time>
      </trkpt>
      <trkpt lat="45.54887" lon="5.94223">
        <ele>415.43</ele>
        <time>2014-10-04T09:16:49Z</time>
      </trkpt>
      <trkpt lat="45.54891" lon="5.94224">
        <ele>415.43</ele>
        <time>2014-10-04T09:16:51Z</time>
      </trkpt>
      <trkpt lat="45.54905" lon="5.94209">
        <ele>414.95</ele>
        <time>2014-10-04T09:16:56Z</time>
      </trkpt>
      <trkpt lat="45.54909" lon="5.94195">
        <ele>414.95</ele>
        <time>2014-10-04T09:16:58Z</time>
      </trkpt>
      <trkpt lat="45.54935" lon="5.94124">
        <ele>412.54</ele>
        <time>2014-10-04T09:17:08Z</time>
      </trkpt>
      <trkpt lat="45.54961" lon="5.94137">
        <ele>409.66</ele>
        <time>2014-10-04T09:17:17Z</time>
      </trkpt>
      <trkpt lat="45.54996" lon="5.9416">
        <ele>406.29</ele>
        <time>2014-10-04T09:17:24Z</time>
      </trkpt>
      <trkpt lat="45.55008" lon="5.94165">
        <ele>406.29</ele>
        <time>2014-10-04T09:17:26Z</time>
      </trkpt>
      <trkpt lat="45.55034" lon="5.94163">
        <ele>405.81</ele>
        <time>2014-10-04T09:17:30Z</time>
      </trkpt>
      <trkpt lat="45.5506" lon="5.94146">
        <ele>405.33</ele>
        <time>2014-10-04T09:17:34Z</time>
      </trkpt>
      <trkpt lat="45.55116" lon="5.94141">
        <ele>402.45</ele>
        <time>2014-10-04T09:17:42Z</time>
      </trkpt>
      <trkpt lat="45.55124" lon="5.94144">
        <ele>401.97</ele>
        <time>2014-10-04T09:17:44Z</time>
      </trkpt>
      <trkpt lat="45.55137" lon="5.94159">
        <ele>395.24</ele>
        <time>2014-10-04T09:17:54Z</time>
      </trkpt>
      <trkpt lat="45.55116" lon="5.9416">
        <ele>376.01</ele>
        <time>2014-10-04T09:18:12Z</time>
      </trkpt>
      <trkpt lat="45.55113" lon="5.94162">
        <ele>372.17</ele>
        <time>2014-10-04T09:18:29Z</time>
      </trkpt>
      <trkpt lat="45.5511" lon="5.94166">
        <ele>367.36</ele>
        <time>2014-10-04T09:18:53Z</time>
      </trkpt>
      <trkpt lat="45.55108" lon="5.94167">
        <ele>364.48</ele>
        <time>2014-10-04T09:19:17Z</time>
      </trkpt>
      <trkpt lat="45.55106" lon="5.94167">
        <ele>360.15</ele>
        <time>2014-10-04T09:19:33Z</time>
      </trkpt>
    </trkseg>
  </trk>
</gpx>